sensor_id;sensor_type;location;lat;lon;timestamp;pressure;altitude;pressure_sealevel;temperature;humidity
76195;BME280;64964;48.694;21.206;2023-03-01T00:01:02;98991.69;;;-0.62;62.30
76195;BME280;64964;48.694;21.206;2023-03-01T00:03:28;98989.09;;;-0.62;61.99
76195;BME280;64964;48.694;21.206;2023-03-01T00:05:53;98984.78;;;-0.63;62.27
76195;BME280;64964;48.694;21.206;2023-03-01T00:08:19;98978.75;;;-0.64;61.79
76195;BME280;64964;48.694;21.206;2023-03-01T00:10:44;98977.84;;;-0.63;61.56
76195;BME280;64964;48.694;21.206;2023-03-01T00:13:09;98980.44;;;-0.63;61.51
76195;BME280;64964;48.694;21.206;2023-03-01T00:15:38;98975.41;;;-0.66;61.99
76195;BME280;64964;48.694;21.206;2023-03-01T00:18:04;98971.13;;;-0.67;62.12
76195;BME280;64964;48.694;21.206;2023-03-01T00:20:29;98972.81;;;-0.66;62.16
76195;BME280;64964;48.694;21.206;2023-03-01T00:22:55;98965.84;;;-0.65;62.36
76195;BME280;64964;48.694;21.206;2023-03-01T00:25:20;98961.59;;;-0.66;62.05
76195;BME280;64964;48.694;21.206;2023-03-01T00:27:46;98957.28;;;-0.67;62.62
76195;BME280;64964;48.694;21.206;2023-03-01T00:30:12;98952.97;;;-0.67;63.10
76195;BME280;64964;48.694;21.206;2023-03-01T00:32:37;98949.50;;;-0.67;62.31
76195;BME280;64964;48.694;21.206;2023-03-01T00:35:03;98955.63;;;-0.68;62.64
76195;BME280;64964;48.694;21.206;2023-03-01T00:37:28;98948.59;;;-0.66;62.64
76195;BME280;64964;48.694;21.206;2023-03-01T00:39:54;98947.78;;;-0.67;62.72
76195;BME280;64964;48.694;21.206;2023-03-01T00:42:19;98947.69;;;-0.65;62.55
76195;BME280;64964;48.694;21.206;2023-03-01T00:44:44;98942.50;;;-0.65;62.68
76195;BME280;64964;48.694;21.206;2023-03-01T00:47:10;98934.56;;;-0.62;62.25
76195;BME280;64964;48.694;21.206;2023-03-01T00:49:35;98938.88;;;-0.63;62.83
76195;BME280;64964;48.694;21.206;2023-03-01T00:52:00;98938.03;;;-0.63;62.55
76195;BME280;64964;48.694;21.206;2023-03-01T00:54:26;98941.41;;;-0.61;62.21
76195;BME280;64964;48.694;21.206;2023-03-01T00:56:51;98943.19;;;-0.62;62.26
76195;BME280;64964;48.694;21.206;2023-03-01T00:59:16;98945.78;;;-0.62;63.17
76195;BME280;64964;48.694;21.206;2023-03-01T01:01:42;98944.03;;;-0.61;62.33
76195;BME280;64964;48.694;21.206;2023-03-01T01:04:09;98944.06;;;-0.63;62.08
76195;BME280;64964;48.694;21.206;2023-03-01T01:06:38;98938.75;;;-0.60;62.18
76195;BME280;64964;48.694;21.206;2023-03-01T01:09:06;98941.34;;;-0.60;62.14
76195;BME280;64964;48.694;21.206;2023-03-01T01:11:32;98948.16;;;-0.57;62.47
76195;BME280;64964;48.694;21.206;2023-03-01T01:13:58;98946.28;;;-0.55;62.24
76195;BME280;64964;48.694;21.206;2023-03-01T01:16:25;98949.91;;;-0.58;62.86
76195;BME280;64964;48.694;21.206;2023-03-01T01:18:51;98946.25;;;-0.54;62.74
76195;BME280;64964;48.694;21.206;2023-03-01T01:21:20;98947.06;;;-0.53;62.22
76195;BME280;64964;48.694;21.206;2023-03-01T01:23:46;98946.00;;;-0.49;62.15
76195;BME280;64964;48.694;21.206;2023-03-01T01:26:17;98941.56;;;-0.47;62.20
76195;BME280;64964;48.694;21.206;2023-03-01T01:28:43;98943.25;;;-0.46;62.14
76195;BME280;64964;48.694;21.206;2023-03-01T01:31:09;98939.88;;;-0.48;62.10
76195;BME280;64964;48.694;21.206;2023-03-01T01:33:35;98940.72;;;-0.47;62.37
76195;BME280;64964;48.694;21.206;2023-03-01T01:36:03;98933.75;;;-0.47;62.28
76195;BME280;64964;48.694;21.206;2023-03-01T01:38:28;98931.94;;;-0.45;62.11
76195;BME280;64964;48.694;21.206;2023-03-01T01:40:53;98926.91;;;-0.48;62.45
76195;BME280;64964;48.694;21.206;2023-03-01T01:43:26;98923.47;;;-0.48;62.51
76195;BME280;64964;48.694;21.206;2023-03-01T01:45:55;98916.50;;;-0.48;62.21
76195;BME280;64964;48.694;21.206;2023-03-01T01:48:24;98921.69;;;-0.48;62.16
76195;BME280;64964;48.694;21.206;2023-03-01T01:50:59;98927.00;;;-0.49;62.86
76195;BME280;64964;48.694;21.206;2023-03-01T01:53:26;98931.34;;;-0.50;62.15
76195;BME280;64964;48.694;21.206;2023-03-01T01:55:56;98927.00;;;-0.49;62.04
76195;BME280;64964;48.694;21.206;2023-03-01T01:58:25;98920.19;;;-0.52;62.22
76195;BME280;64964;48.694;21.206;2023-03-01T02:00:53;98920.31;;;-0.55;62.41
76195;BME280;64964;48.694;21.206;2023-03-01T02:03:23;98929.81;;;-0.54;62.51
76195;BME280;64964;48.694;21.206;2023-03-01T02:08:39;98931.53;;;-0.55;62.10
76195;BME280;64964;48.694;21.206;2023-03-01T02:11:08;98933.25;;;-0.54;62.06
76195;BME280;64964;48.694;21.206;2023-03-01T02:13:34;98925.59;;;-0.57;62.37
76195;BME280;64964;48.694;21.206;2023-03-01T02:16:05;98929.97;;;-0.57;62.16
76195;BME280;64964;48.694;21.206;2023-03-01T02:18:33;98924.69;;;-0.56;61.83
76195;BME280;64964;48.694;21.206;2023-03-01T02:23:23;98921.16;;;-0.55;61.68
76195;BME280;64964;48.694;21.206;2023-03-01T02:26:00;98927.28;;;-0.56;62.03
76195;BME280;64964;48.694;21.206;2023-03-01T02:28:33;98920.31;;;-0.55;61.96
76195;BME280;64964;48.694;21.206;2023-03-01T02:31:01;98922.88;;;-0.54;61.83
76195;BME280;64964;48.694;21.206;2023-03-01T02:33:45;98930.56;;;-0.52;61.59
76195;BME280;64964;48.694;21.206;2023-03-01T02:36:16;98922.78;;;-0.52;61.59
76195;BME280;64964;48.694;21.206;2023-03-01T02:38:42;98919.25;;;-0.51;61.42
76195;BME280;64964;48.694;21.206;2023-03-01T02:41:11;98923.69;;;-0.53;61.47
76195;BME280;64964;48.694;21.206;2023-03-01T02:43:38;98930.56;;;-0.52;61.71
76195;BME280;64964;48.694;21.206;2023-03-01T02:46:07;98922.03;;;-0.54;61.44
76195;BME280;64964;48.694;21.206;2023-03-01T02:48:41;98920.28;;;-0.54;61.74
76195;BME280;64964;48.694;21.206;2023-03-01T02:51:22;98921.94;;;-0.53;61.58
76195;BME280;64964;48.694;21.206;2023-03-01T02:56:45;98920.19;;;-0.52;61.40
76195;BME280;64964;48.694;21.206;2023-03-01T02:59:15;98921.78;;;-0.49;61.35
76195;BME280;64964;48.694;21.206;2023-03-01T03:01:41;98928.81;;;-0.52;61.47
76195;BME280;64964;48.694;21.206;2023-03-01T03:04:09;98931.25;;;-0.48;61.09
76195;BME280;64964;48.694;21.206;2023-03-01T03:06:36;98926.81;;;-0.46;61.07
76195;BME280;64964;48.694;21.206;2023-03-01T03:09:02;98928.56;;;-0.47;61.10
76195;BME280;64964;48.694;21.206;2023-03-01T03:11:28;98932.88;;;-0.46;60.92
76195;BME280;64964;48.694;21.206;2023-03-01T03:13:54;98922.47;;;-0.46;61.09
76195;BME280;64964;48.694;21.206;2023-03-01T03:16:20;98939.66;;;-0.43;60.90
76195;BME280;64964;48.694;21.206;2023-03-01T03:18:46;98924.91;;;-0.43;61.14
76195;BME280;64964;48.694;21.206;2023-03-01T03:21:12;98929.13;;;-0.40;61.17
76195;BME280;64964;48.694;21.206;2023-03-01T03:23:38;98923.97;;;-0.42;60.88
76195;BME280;64964;48.694;21.206;2023-03-01T03:26:05;98923.00;;;-0.39;61.08
76195;BME280;64964;48.694;21.206;2023-03-01T03:28:31;98930.78;;;-0.39;60.86
76195;BME280;64964;48.694;21.206;2023-03-01T03:30:57;98922.06;;;-0.38;60.88
76195;BME280;64964;48.694;21.206;2023-03-01T03:33:24;98918.50;;;-0.36;60.72
76195;BME280;64964;48.694;21.206;2023-03-01T03:35:50;98915.88;;;-0.36;60.77
76195;BME280;64964;48.694;21.206;2023-03-01T03:38:18;98912.38;;;-0.35;60.66
76195;BME280;64964;48.694;21.206;2023-03-01T03:40:52;98918.56;;;-0.37;60.82
76195;BME280;64964;48.694;21.206;2023-03-01T03:43:26;98912.22;;;-0.32;60.44
76195;BME280;64964;48.694;21.206;2023-03-01T03:45:51;98909.75;;;-0.35;60.49
76195;BME280;64964;48.694;21.206;2023-03-01T03:48:17;98915.88;;;-0.36;60.78
76195;BME280;64964;48.694;21.206;2023-03-01T03:50:48;98908.78;;;-0.32;60.86
76195;BME280;64964;48.694;21.206;2023-03-01T03:53:14;98909.63;;;-0.32;60.33
76195;BME280;64964;48.694;21.206;2023-03-01T03:55:40;98911.38;;;-0.32;60.54
76195;BME280;64964;48.694;21.206;2023-03-01T03:58:08;98908.78;;;-0.32;60.60
76195;BME280;64964;48.694;21.206;2023-03-01T04:00:36;98894.88;;;-0.31;60.49
76195;BME280;64964;48.694;21.206;2023-03-01T04:03:02;98894.88;;;-0.31;60.46
76195;BME280;64964;48.694;21.206;2023-03-01T04:05:28;98892.25;;;-0.31;60.53
76195;BME280;64964;48.694;21.206;2023-03-01T04:07:54;98898.38;;;-0.32;60.50
76195;BME280;64964;48.694;21.206;2023-03-01T04:10:40;98888.25;;;-0.37;60.57
76195;BME280;64964;48.694;21.206;2023-03-01T04:13:07;98890.97;;;-0.40;60.76
76195;BME280;64964;48.694;21.206;2023-03-01T04:15:34;98898.69;;;-0.38;60.50
76195;BME280;64964;48.694;21.206;2023-03-01T04:18:00;98896.19;;;-0.40;60.80
76195;BME280;64964;48.694;21.206;2023-03-01T04:20:30;98898.00;;;-0.42;60.94
76195;BME280;64964;48.694;21.206;2023-03-01T04:23:07;98897.09;;;-0.41;60.69
76195;BME280;64964;48.694;21.206;2023-03-01T04:25:47;98887.78;;;-0.45;61.05
76195;BME280;64964;48.694;21.206;2023-03-01T04:28:40;98892.16;;;-0.45;60.87
76195;BME280;64964;48.694;21.206;2023-03-01T04:31:13;98888.88;;;-0.49;60.97
76195;BME280;64964;48.694;21.206;2023-03-01T04:33:40;98890.00;;;-0.55;61.26
76195;BME280;64964;48.694;21.206;2023-03-01T04:36:07;98900.22;;;-0.52;61.05
76195;BME280;64964;48.694;21.206;2023-03-01T04:38:34;98902.09;;;-0.54;61.02
76195;BME280;64964;48.694;21.206;2023-03-01T04:41:01;98895.28;;;-0.56;61.14
76195;BME280;64964;48.694;21.206;2023-03-01T04:43:28;98904.75;;;-0.55;61.01
76195;BME280;64964;48.694;21.206;2023-03-01T04:45:53;98899.50;;;-0.54;61.04
76195;BME280;64964;48.694;21.206;2023-03-01T04:48:19;98902.09;;;-0.54;60.89
76195;BME280;64964;48.694;21.206;2023-03-01T04:50:44;98907.50;;;-0.58;61.01
76195;BME280;64964;48.694;21.206;2023-03-01T04:53:09;98911.78;;;-0.57;61.12
76195;BME280;64964;48.694;21.206;2023-03-01T04:55:35;98908.41;;;-0.59;60.96
76195;BME280;64964;48.694;21.206;2023-03-01T04:58:00;98902.38;;;-0.60;61.16
76195;BME280;64964;48.694;21.206;2023-03-01T05:00:26;98906.75;;;-0.60;60.96
76195;BME280;64964;48.694;21.206;2023-03-01T05:02:54;98902.53;;;-0.63;61.07
76195;BME280;64964;48.694;21.206;2023-03-01T05:05:34;98899.03;;;-0.62;61.14
76195;BME280;64964;48.694;21.206;2023-03-01T05:08:07;98900.78;;;-0.62;61.17
76195;BME280;64964;48.694;21.206;2023-03-01T05:10:34;98902.47;;;-0.61;61.03
76195;BME280;64964;48.694;21.206;2023-03-01T05:13:01;98904.97;;;-0.60;60.91
76195;BME280;64964;48.694;21.206;2023-03-01T05:15:29;98902.47;;;-0.61;61.00
76195;BME280;64964;48.694;21.206;2023-03-01T05:17:56;98904.13;;;-0.60;60.88
76195;BME280;64964;48.694;21.206;2023-03-01T05:20:25;98910.16;;;-0.60;61.21
76195;BME280;64964;48.694;21.206;2023-03-01T05:22:52;98903.22;;;-0.59;61.01
76195;BME280;64964;48.694;21.206;2023-03-01T05:25:19;98898.72;;;-0.56;60.82
76195;BME280;64964;48.694;21.206;2023-03-01T05:27:46;98902.84;;;-0.52;60.63
76195;BME280;64964;48.694;21.206;2023-03-01T05:30:12;98898.41;;;-0.49;60.58
76195;BME280;64964;48.694;21.206;2023-03-01T05:32:46;98904.34;;;-0.47;60.60
76195;BME280;64964;48.694;21.206;2023-03-01T05:35:13;98906.97;;;-0.47;60.71
76195;BME280;64964;48.694;21.206;2023-03-01T05:37:41;98907.66;;;-0.44;60.62
76195;BME280;64964;48.694;21.206;2023-03-01T05:40:08;98901.38;;;-0.40;60.39
76195;BME280;64964;48.694;21.206;2023-03-01T05:42:41;98896.28;;;-0.41;60.56
76195;BME280;64964;48.694;21.206;2023-03-01T05:45:07;98899.69;;;-0.41;60.91
76195;BME280;64964;48.694;21.206;2023-03-01T05:47:35;98902.06;;;-0.36;60.63
76195;BME280;64964;48.694;21.206;2023-03-01T05:50:01;98902.06;;;-0.36;60.50
76195;BME280;64964;48.694;21.206;2023-03-01T05:52:26;98907.84;;;-0.31;60.36
76195;BME280;64964;48.694;21.206;2023-03-01T05:54:51;98906.88;;;-0.29;60.28
76195;BME280;64964;48.694;21.206;2023-03-01T05:57:17;98905.78;;;-0.24;60.23
76195;BME280;64964;48.694;21.206;2023-03-01T05:59:42;98903.19;;;-0.24;60.11
76195;BME280;64964;48.694;21.206;2023-03-01T06:02:07;98906.44;;;-0.21;60.16
76195;BME280;64964;48.694;21.206;2023-03-01T06:04:33;98905.38;;;-0.17;60.01
76195;BME280;64964;48.694;21.206;2023-03-01T06:06:58;98904.28;;;-0.13;60.03
76195;BME280;64964;48.694;21.206;2023-03-01T06:09:23;98916.38;;;-0.12;59.82
76195;BME280;64964;48.694;21.206;2023-03-01T06:11:51;98913.53;;;-0.07;59.74
76195;BME280;64964;48.694;21.206;2023-03-01T06:14:16;98913.31;;;-0.03;59.86
76195;BME280;64964;48.694;21.206;2023-03-01T06:16:41;98911.28;;;0.03;59.59
76195;BME280;64964;48.694;21.206;2023-03-01T06:19:07;98907.59;;;0.07;59.38
76195;BME280;64964;48.694;21.206;2023-03-01T06:21:32;98916.00;;;0.12;59.41
76195;BME280;64964;48.694;21.206;2023-03-01T06:23:57;98924.47;;;0.15;59.47
76195;BME280;64964;48.694;21.206;2023-03-01T06:26:23;98924.16;;;0.21;59.21
76195;BME280;64964;48.694;21.206;2023-03-01T06:28:48;98930.63;;;0.30;58.96
76195;BME280;64964;48.694;21.206;2023-03-01T06:31:13;98927.78;;;0.35;59.09
76195;BME280;64964;48.694;21.206;2023-03-01T06:33:39;98916.13;;;0.42;58.94
76195;BME280;64964;48.694;21.206;2023-03-01T06:36:05;98926.03;;;0.51;58.67
76195;BME280;64964;48.694;21.206;2023-03-01T06:38:30;98930.06;;;0.57;58.44
76195;BME280;64964;48.694;21.206;2023-03-01T06:40:56;98927.28;;;0.60;58.21
76195;BME280;64964;48.694;21.206;2023-03-01T06:43:22;98919.06;;;0.67;58.13
76195;BME280;64964;48.694;21.206;2023-03-01T06:45:48;98923.09;;;0.73;58.05
76195;BME280;64964;48.694;21.206;2023-03-01T06:48:14;98927.09;;;0.79;57.99
76195;BME280;64964;48.694;21.206;2023-03-01T06:50:39;98925.00;;;0.85;57.83
76195;BME280;64964;48.694;21.206;2023-03-01T06:53:04;98922.06;;;0.91;57.56
76195;BME280;64964;48.694;21.206;2023-03-01T06:55:30;98925.06;;;0.99;57.80
76195;BME280;64964;48.694;21.206;2023-03-01T06:57:59;98918.69;;;1.05;57.12
76195;BME280;64964;48.694;21.206;2023-03-01T07:00:26;98931.84;;;1.18;56.93
76195;BME280;64964;48.694;21.206;2023-03-01T07:02:52;98919.13;;;1.28;56.86
76195;BME280;64964;48.694;21.206;2023-03-01T07:05:18;98920.84;;;1.43;56.60
76195;BME280;64964;48.694;21.206;2023-03-01T07:07:44;98915.38;;;1.62;56.46
76195;BME280;64964;48.694;21.206;2023-03-01T07:10:10;98918.97;;;1.89;56.10
76195;BME280;64964;48.694;21.206;2023-03-01T07:12:36;98915.88;;;2.25;54.44
76195;BME280;64964;48.694;21.206;2023-03-01T07:15:02;98905.06;;;2.73;53.40
76195;BME280;64964;48.694;21.206;2023-03-01T07:17:27;98905.28;;;3.37;52.23
76195;BME280;64964;48.694;21.206;2023-03-01T07:19:52;98894.63;;;4.16;50.42
76195;BME280;64964;48.694;21.206;2023-03-01T07:22:18;98899.75;;;5.27;49.29
76195;BME280;64964;48.694;21.206;2023-03-01T07:24:43;98892.16;;;6.60;47.92
76195;BME280;64964;48.694;21.206;2023-03-01T07:27:09;98902.88;;;7.85;46.03
76195;BME280;64964;48.694;21.206;2023-03-01T07:29:35;98899.72;;;9.22;42.61
76195;BME280;64964;48.694;21.206;2023-03-01T07:32:04;98895.63;;;10.60;42.88
76195;BME280;64964;48.694;21.206;2023-03-01T07:34:30;98895.19;;;11.90;38.15
76195;BME280;64964;48.694;21.206;2023-03-01T07:36:56;98898.81;;;13.08;38.41
76195;BME280;64964;48.694;21.206;2023-03-01T07:39:21;98895.50;;;14.12;36.65
76195;BME280;64964;48.694;21.206;2023-03-01T07:41:48;98896.97;;;15.09;36.00
76195;BME280;64964;48.694;21.206;2023-03-01T07:44:14;98895.31;;;15.92;31.30
76195;BME280;64964;48.694;21.206;2023-03-01T07:46:40;98898.75;;;16.89;33.53
76195;BME280;64964;48.694;21.206;2023-03-01T07:49:06;98897.03;;;17.67;31.85
76195;BME280;64964;48.694;21.206;2023-03-01T07:51:31;98893.38;;;18.25;30.75
76195;BME280;64964;48.694;21.206;2023-03-01T07:53:56;98902.63;;;18.98;30.30
76195;BME280;64964;48.694;21.206;2023-03-01T07:56:22;98897.59;;;19.56;29.47
76195;BME280;64964;48.694;21.206;2023-03-01T07:58:47;98904.81;;;20.09;28.34
76195;BME280;64964;48.694;21.206;2023-03-01T08:01:16;98896.34;;;20.32;25.87
76195;BME280;64964;48.694;21.206;2023-03-01T08:03:41;98909.44;;;20.80;26.28
76195;BME280;64964;48.694;21.206;2023-03-01T08:06:09;98902.94;;;20.94;25.78
76195;BME280;64964;48.694;21.206;2023-03-01T08:08:35;98896.41;;;21.22;25.42
76195;BME280;64964;48.694;21.206;2023-03-01T08:11:03;98899.13;;;21.15;23.80
76195;BME280;64964;48.694;21.206;2023-03-01T08:13:29;98893.94;;;21.52;24.45
76195;BME280;64964;48.694;21.206;2023-03-01T08:15:54;98892.03;;;21.59;24.34
76195;BME280;64964;48.694;21.206;2023-03-01T08:18:21;98887.34;;;21.79;23.83
76195;BME280;64964;48.694;21.206;2023-03-01T08:20:46;98894.25;;;21.94;23.53
76195;BME280;64964;48.694;21.206;2023-03-01T08:23:12;98893.22;;;21.95;22.98
76195;BME280;64964;48.694;21.206;2023-03-01T08:25:38;98892.63;;;21.86;23.16
76195;BME280;64964;48.694;21.206;2023-03-01T08:28:04;98901.56;;;22.11;23.08
76195;BME280;64964;48.694;21.206;2023-03-01T08:30:30;98895.81;;;22.26;23.05
76195;BME280;64964;48.694;21.206;2023-03-01T08:32:55;98893.47;;;22.36;22.68
76195;BME280;64964;48.694;21.206;2023-03-01T08:35:20;98893.56;;;22.23;22.17
76195;BME280;64964;48.694;21.206;2023-03-01T08:37:46;98875.72;;;22.29;22.41
76195;BME280;64964;48.694;21.206;2023-03-01T08:40:12;98875.84;;;22.34;22.30
76195;BME280;64964;48.694;21.206;2023-03-01T08:42:39;98872.34;;;22.33;22.40
76195;BME280;64964;48.694;21.206;2023-03-01T08:45:06;98875.63;;;22.35;21.73
76195;BME280;64964;48.694;21.206;2023-03-01T08:47:31;98870.09;;;22.30;22.37
76195;BME280;64964;48.694;21.206;2023-03-01T08:49:58;98866.66;;;22.42;22.45
76195;BME280;64964;48.694;21.206;2023-03-01T08:52:24;98860.75;;;22.33;22.20
76195;BME280;64964;48.694;21.206;2023-03-01T08:54:49;98857.97;;;22.21;22.44
76195;BME280;64964;48.694;21.206;2023-03-01T08:57:15;98858.50;;;21.86;21.98
76195;BME280;64964;48.694;21.206;2023-03-01T08:59:41;98861.22;;;21.80;22.04
76195;BME280;64964;48.694;21.206;2023-03-01T09:02:12;98853.31;;;21.60;21.59
76195;BME280;64964;48.694;21.206;2023-03-01T09:04:38;98843.41;;;21.29;22.00
76195;BME280;64964;48.694;21.206;2023-03-01T09:07:03;98846.47;;;21.01;22.62
76195;BME280;64964;48.694;21.206;2023-03-01T09:09:29;98840.13;;;20.88;22.78
76195;BME280;64964;48.694;21.206;2023-03-01T09:11:55;98836.53;;;20.56;23.13
76195;BME280;64964;48.694;21.206;2023-03-01T09:14:20;98832.66;;;20.39;23.29
76195;BME280;64964;48.694;21.206;2023-03-01T09:16:46;98839.56;;;20.08;23.21
76195;BME280;64964;48.694;21.206;2023-03-01T09:19:11;98837.56;;;19.71;23.74
76195;BME280;64964;48.694;21.206;2023-03-01T09:21:37;98824.34;;;19.36;23.88
76195;BME280;64964;48.694;21.206;2023-03-01T09:24:02;98828.00;;;19.02;23.97
76195;BME280;64964;48.694;21.206;2023-03-01T09:26:28;98827.19;;;18.47;23.90
76195;BME280;64964;48.694;21.206;2023-03-01T09:28:55;98823.16;;;17.88;24.29
76195;BME280;64964;48.694;21.206;2023-03-01T09:31:22;98834.91;;;17.16;24.64
76195;BME280;64964;48.694;21.206;2023-03-01T09:33:49;98828.72;;;16.73;25.26
76195;BME280;64964;48.694;21.206;2023-03-01T09:36:17;98822.47;;;16.36;25.63
76195;BME280;64964;48.694;21.206;2023-03-01T09:38:43;98825.34;;;16.05;26.03
76195;BME280;64964;48.694;21.206;2023-03-01T09:46:44;98807.81;;;15.20;27.38
76195;BME280;64964;48.694;21.206;2023-03-01T09:49:17;98815.22;;;15.10;27.31
76195;BME280;64964;48.694;21.206;2023-03-01T09:51:54;98816.41;;;15.07;27.17
76195;BME280;64964;48.694;21.206;2023-03-01T09:54:20;98813.88;;;15.14;27.60
76195;BME280;64964;48.694;21.206;2023-03-01T09:59:30;98805.75;;;15.07;26.75
76195;BME280;64964;48.694;21.206;2023-03-01T10:04:45;98796.75;;;15.08;27.17
76195;BME280;64964;48.694;21.206;2023-03-01T10:07:36;98801.25;;;15.08;27.10
76195;BME280;64964;48.694;21.206;2023-03-01T10:10:06;98803.84;;;15.16;27.14
76195;BME280;64964;48.694;21.206;2023-03-01T10:12:37;98796.38;;;15.34;27.35
76195;BME280;64964;48.694;21.206;2023-03-01T10:15:14;98795.56;;;15.49;26.70
76195;BME280;64964;48.694;21.206;2023-03-01T10:17:47;98784.34;;;15.76;27.01
76195;BME280;64964;48.694;21.206;2023-03-01T10:23:04;98782.00;;;16.32;26.51
76195;BME280;64964;48.694;21.206;2023-03-01T10:30:47;98775.53;;;17.21;26.02
76195;BME280;64964;48.694;21.206;2023-03-01T10:33:18;98773.84;;;17.69;25.42
76195;BME280;64964;48.694;21.206;2023-03-01T10:35:45;98774.41;;;18.27;25.60
76195;BME280;64964;48.694;21.206;2023-03-01T10:38:13;98775.44;;;19.07;25.10
76195;BME280;64964;48.694;21.206;2023-03-01T10:40:58;98773.34;;;19.89;23.29
76195;BME280;64964;48.694;21.206;2023-03-01T10:43:47;98763.66;;;20.84;23.25
76195;BME280;64964;48.694;21.206;2023-03-01T10:46:34;98752.78;;;21.73;21.35
76195;BME280;64964;48.694;21.206;2023-03-01T10:49:20;98747.28;;;22.41;19.33
76195;BME280;64964;48.694;21.206;2023-03-01T10:51:48;98752.09;;;23.23;21.37
76195;BME280;64964;48.694;21.206;2023-03-01T10:54:28;98756.97;;;23.91;18.98
76195;BME280;64964;48.694;21.206;2023-03-01T10:56:56;98753.88;;;24.51;18.05
76195;BME280;64964;48.694;21.206;2023-03-01T10:59:29;98747.19;;;25.16;17.68
76195;BME280;64964;48.694;21.206;2023-03-01T11:04:38;98746.00;;;26.18;17.52
76195;BME280;64964;48.694;21.206;2023-03-01T11:07:04;98739.47;;;26.41;17.55
76195;BME280;64964;48.694;21.206;2023-03-01T11:09:33;98736.22;;;26.88;16.17
76195;BME280;64964;48.694;21.206;2023-03-01T11:12:13;98730.78;;;27.20;16.83
76195;BME280;64964;48.694;21.206;2023-03-01T11:14:47;98727.22;;;27.52;15.82
76195;BME280;64964;48.694;21.206;2023-03-01T11:19:39;98715.59;;;28.09;16.78
76195;BME280;64964;48.694;21.206;2023-03-01T11:22:12;98713.03;;;27.87;15.00
76195;BME280;64964;48.694;21.206;2023-03-01T11:24:44;98712.06;;;27.61;14.89
76195;BME280;64964;48.694;21.206;2023-03-01T11:27:22;98710.38;;;27.13;15.61
76195;BME280;64964;48.694;21.206;2023-03-01T11:30:15;98705.00;;;26.91;16.13
76195;BME280;64964;48.694;21.206;2023-03-01T11:32:49;98703.66;;;26.61;15.55
76195;BME280;64964;48.694;21.206;2023-03-01T11:35:21;98693.50;;;26.46;15.71
76195;BME280;64964;48.694;21.206;2023-03-01T11:38:03;98689.97;;;26.02;15.25
76195;BME280;64964;48.694;21.206;2023-03-01T11:40:38;98690.13;;;25.73;17.42
76195;BME280;64964;48.694;21.206;2023-03-01T11:43:33;98693.84;;;24.83;17.09
76195;BME280;64964;48.694;21.206;2023-03-01T11:56:43;98679.06;;;20.62;19.23
76195;BME280;64964;48.694;21.206;2023-03-01T11:59:37;98679.22;;;19.84;19.29
76195;BME280;64964;48.694;21.206;2023-03-01T12:05:50;98660.00;;;19.02;20.29
76195;BME280;64964;48.694;21.206;2023-03-01T12:20:11;98642.66;;;17.08;20.92
76195;BME280;64964;48.694;21.206;2023-03-01T12:23:02;98641.25;;;16.62;21.14
76195;BME280;64964;48.694;21.206;2023-03-01T12:25:53;98643.81;;;16.49;21.63
76195;BME280;64964;48.694;21.206;2023-03-01T12:39:03;98643.53;;;17.50;22.12
76195;BME280;64964;48.694;21.206;2023-03-01T12:41:46;98631.63;;;17.52;21.09
76195;BME280;64964;48.694;21.206;2023-03-01T12:50:39;98630.47;;;16.28;21.69
76195;BME280;64964;48.694;21.206;2023-03-01T12:56:11;98622.81;;;15.52;22.32
76195;BME280;64964;48.694;21.206;2023-03-01T13:04:26;98632.72;;;14.99;22.61
76195;BME280;64964;48.694;21.206;2023-03-01T13:09:55;98618.75;;;14.67;22.85
76195;BME280;64964;48.694;21.206;2023-03-01T13:18:03;98620.81;;;14.34;22.09
76195;BME280;64964;48.694;21.206;2023-03-01T13:33:49;98604.50;;;14.75;21.71
76195;BME280;64964;48.694;21.206;2023-03-01T13:41:50;98607.91;;;16.52;19.70
76195;BME280;64964;48.694;21.206;2023-03-01T13:44:36;98605.53;;;16.42;20.05
76195;BME280;64964;48.694;21.206;2023-03-01T13:52:39;98597.84;;;14.33;20.61
76195;BME280;64964;48.694;21.206;2023-03-01T13:55:41;98586.81;;;13.76;20.91
76195;BME280;64964;48.694;21.206;2023-03-01T13:58:23;98594.19;;;13.26;21.72
76195;BME280;64964;48.694;21.206;2023-03-01T14:01:07;98596.75;;;12.87;21.94
76195;BME280;64964;48.694;21.206;2023-03-01T14:03:40;98606.25;;;12.57;22.80
76195;BME280;64964;48.694;21.206;2023-03-01T14:06:14;98587.19;;;12.20;21.29
76195;BME280;64964;48.694;21.206;2023-03-01T14:08:41;98592.81;;;12.01;22.41
76195;BME280;64964;48.694;21.206;2023-03-01T14:13:42;98598.47;;;11.56;23.11
76195;BME280;64964;48.694;21.206;2023-03-01T14:19:15;98595.84;;;11.13;22.70
76195;BME280;64964;48.694;21.206;2023-03-01T14:21:46;98593.63;;;11.01;23.54
76195;BME280;64964;48.694;21.206;2023-03-01T14:24:30;98588.75;;;10.88;24.13
76195;BME280;64964;48.694;21.206;2023-03-01T14:27:17;98596.28;;;10.75;24.60
76195;BME280;64964;48.694;21.206;2023-03-01T14:29:44;98594.06;;;10.62;25.01
76195;BME280;64964;48.694;21.206;2023-03-01T14:32:11;98591.97;;;10.47;25.40
76195;BME280;64964;48.694;21.206;2023-03-01T14:34:43;98597.28;;;10.30;25.67
76195;BME280;64964;48.694;21.206;2023-03-01T14:39:47;98604.72;;;9.98;26.35
76195;BME280;64964;48.694;21.206;2023-03-01T14:42:13;98598.84;;;9.87;26.38
76195;BME280;64964;48.694;21.206;2023-03-01T14:44:42;98602.44;;;9.68;26.47
76195;BME280;64964;48.694;21.206;2023-03-01T14:47:20;98602.16;;;9.43;26.80
76195;BME280;64964;48.694;21.206;2023-03-01T14:49:51;98591.84;;;9.22;26.41
76195;BME280;64964;48.694;21.206;2023-03-01T14:52:21;98594.06;;;9.00;26.85
76195;BME280;64964;48.694;21.206;2023-03-01T14:54:50;98588.41;;;8.85;26.81
76195;BME280;64964;48.694;21.206;2023-03-01T14:57:22;98605.38;;;8.72;26.86
76195;BME280;64964;48.694;21.206;2023-03-01T14:59:53;98589.03;;;8.59;26.40
76195;BME280;64964;48.694;21.206;2023-03-01T15:02:22;98597.41;;;8.45;25.83
76195;BME280;64964;48.694;21.206;2023-03-01T15:04:51;98590.59;;;8.33;25.56